^^
Station Historical Data
Daily Summary for April 16, 2017 Units:  English    Metric   Both
« Previous Day
Next Day »
Daily Weekly Monthly Yearly Custom
  High: Low: Average:
Temperature: 83.9 °F 57.5 °F 69.8 °F
Dew Point: 60.1 °F 53.8 °F 56.9 °F
Humidity: 93% 37% 68%
Wind Speed: 12.0mph 0.0mph 4mph
Wind Gust: 25.0mph - -
Wind- - SSW
Pressure: 30.09 in 29.76 in -
Precipitation: 0.01 in    
Historical Graphs
 
 
Tabular Data for April 16, 2017
Time Temperature Dew Point Pressure Wind Wind Speed Wind Gust Humidity Rainfall Rate (Hourly) Conditions
00:00 58.6 °F 55.1 °F 30.09 in SSW 2.0 mph 8.0 mph 88% 0.00 in CLR
00:15 58.8 °F 55.3 °F 30.08 in South 5.0 mph 12.0 mph 88% 0.00 in CLR
00:30 58.8 °F 55.3 °F 30.08 in SSW 2.0 mph 8.0 mph 88% 0.00 in CLR
00:45 58.6 °F 55.1 °F 30.07 in South 5.0 mph 7.0 mph 88% 0.00 in CLR
01:00 58.6 °F 55.4 °F 30.06 in South 1.0 mph 10.0 mph 89% 0.00 in CLR
02:15 57.9 °F 55.3 °F 30.05 in South 1.0 mph 4.0 mph 91% 0.00 in CLR
02:30 57.8 °F 55.5 °F 30.04 in South 1.0 mph 6.0 mph 92% 0.00 in CLR
02:45 58.5 °F 56.1 °F 30.04 in SSW 5.0 mph 12.0 mph 92% 0.00 in CLR
03:00 58.7 °F 56.1 °F 30.03 in SSW 3.0 mph 8.0 mph 91% 0.00 in CLR
03:15 58.7 °F 56.1 °F 30.02 in South 1.0 mph 7.0 mph 91% 0.00 in CLR
03:30 58.6 °F 56.0 °F 30.02 in SSW 2.0 mph 9.0 mph 91% 0.00 in CLR
03:45 58.3 °F 56.0 °F 30.02 in SSW 1.0 mph 7.0 mph 92% 0.00 in CLR
04:00 58.1 °F 55.8 °F 30.01 in Calm   5.0 mph 92% 0.00 in CLR
04:15 58.0 °F 55.7 °F 30.01 in Calm   5.0 mph 92% 0.00 in CLR
04:30 57.9 °F 55.9 °F 30.01 in SSW 1.0 mph 6.0 mph 93% 0.00 in CLR
04:45 57.8 °F 55.8 °F 30.00 in Calm   6.0 mph 93% 0.00 in CLR
05:00 57.8 °F 55.8 °F 30.00 in Calm   2.0 mph 93% 0.00 in CLR
05:15 57.5 °F 55.5 °F 30.00 in Calm   3.0 mph 93% 0.00 in CLR
05:30 57.8 °F 55.8 °F 30.00 in Calm   4.0 mph 93% 0.00 in CLR
05:45 57.9 °F 55.9 °F 30.00 in Calm   2.0 mph 93% 0.00 in CLR
06:00 58.1 °F 56.1 °F 30.00 in Calm   2.0 mph 93% 0.00 in CLR
06:15 58.0 °F 56.0 °F 30.00 in Calm   3.0 mph 93% 0.00 in CLR
06:30 58.1 °F 56.1 °F 30.00 in Calm   2.0 mph 93% 0.00 in CLR
06:45 58.3 °F 56.3 °F 30.00 in Calm   3.0 mph 93% 0.00 in CLR
07:00 58.6 °F 56.6 °F 30.00 in Calm   4.0 mph 93% 0.00 in CLR
07:15 59.3 °F 57.0 °F 30.00 in SSW 1.0 mph 9.0 mph 92% 0.00 in CLR
07:30 60.0 °F 57.4 °F 30.00 in Calm   7.0 mph 91% 0.00 in CLR
07:45 60.9 °F 57.6 °F 30.00 in SSW 1.0 mph 6.0 mph 89% 0.00 in CLR
08:00 61.7 °F 57.8 °F 30.00 in SSW 2.0 mph 7.0 mph 87% 0.00 in CLR
08:15 62.5 °F 58.2 °F 29.99 in SSW 3.0 mph 6.0 mph 86% 0.00 in CLR
08:30 64.1 °F 59.1 °F 29.98 in South 5.0 mph 7.0 mph 84% 0.00 in CLR
08:45 65.0 °F 59.0 °F 29.98 in SSW 3.0 mph 10.0 mph 81% 0.00 in CLR
09:00 67.0 °F 59.5 °F 29.98 in SSW 6.0 mph 10.0 mph 77% 0.00 in CLR
09:15 67.7 °F 59.5 °F 29.98 in SSW 5.0 mph 10.0 mph 75% 0.00 in CLR
09:30 69.7 °F 59.5 °F 29.98 in SSW 3.0 mph 10.0 mph 70% 0.00 in CLR
09:45 72.1 °F 60.1 °F 29.98 in SSW 3.0 mph 13.0 mph 66% 0.00 in CLR
10:00 72.8 °F 59.0 °F 29.97 in SW 3.0 mph 10.0 mph 62% 0.00 in CLR
10:15 73.9 °F 59.1 °F 29.96 in SSW 6.0 mph 10.0 mph 60% 0.00 in SCT
10:30 75.8 °F 58.5 °F 29.96 in SSW 6.0 mph 13.0 mph 55% 0.00 in SCT
10:45 77.2 °F 58.7 °F 29.95 in SW 7.0 mph 12.0 mph 53% 0.00 in SCT
11:00 78.2 °F 58.6 °F 29.95 in SW 6.0 mph 13.0 mph 51% 0.00 in SCT
11:15 77.9 °F 56.0 °F 29.95 in West 3.0 mph 17.0 mph 47% 0.00 in FEW
11:30 77.3 °F 54.9 °F 29.94 in SW 6.0 mph 12.0 mph 46% 0.00 in FEW
11:45 76.1 °F 53.8 °F 29.94 in WSW 6.0 mph 13.0 mph 46% 0.00 in FEW
12:00 75.2 °F 54.2 °F 29.93 in WSW 2.0 mph 12.0 mph 48% 0.00 in FEW
12:15 76.7 °F 55.0 °F 29.92 in SSW 7.0 mph 13.0 mph 47% 0.00 in BKN
12:30 79.0 °F 55.2 °F 29.91 in SSW 8.0 mph 14.0 mph 44% 0.00 in BKN
12:45 79.8 °F 54.7 °F 29.90 in SW 7.0 mph 17.0 mph 42% 0.00 in BKN
13:00 80.9 °F 54.3 °F 29.89 in SW 9.0 mph 15.0 mph 40% 0.00 in BKN
13:15 81.5 °F 55.5 °F 29.88 in SW 5.0 mph 16.0 mph 41% 0.00 in CLR
13:30 81.9 °F 55.2 °F 29.87 in SW 7.0 mph 18.0 mph 40% 0.00 in CLR
13:45 82.4 °F 55.7 °F 29.86 in SW 8.0 mph 17.0 mph 40% 0.00 in CLR
14:00 83.2 °F 55.7 °F 29.86 in SW 6.0 mph 20.0 mph 39% 0.00 in CLR
14:15 83.3 °F 55.1 °F 29.85 in SW 12.0 mph 20.0 mph 38% 0.00 in FEW
14:30 83.3 °F 55.0 °F 29.85 in WSW 6.0 mph 20.0 mph 38% 0.00 in FEW
14:45 83.6 °F 55.3 °F 29.84 in SW 7.0 mph 20.0 mph 38% 0.00 in FEW
15:00 83.9 °F 54.8 °F 29.83 in WSW 6.0 mph 16.0 mph 37% 0.00 in FEW
15:15 82.7 °F 55.2 °F 29.82 in SW 8.0 mph 15.0 mph 39% 0.00 in FEW
15:45 81.1 °F 54.5 °F 29.81 in SW 8.0 mph 18.0 mph 40% 0.00 in FEW
16:00 78.5 °F 56.6 °F 29.82 in WSW 6.0 mph 24.0 mph 47% 0.00 in FEW
16:15 77.8 °F 57.7 °F 29.81 in WSW 2.0 mph 14.0 mph 50% 0.00 in BKN
16:30 80.3 °F 56.4 °F 29.81 in SSW 10.0 mph 20.0 mph 44% 0.00 in BKN
16:45 79.6 °F 56.4 °F 29.80 in SW 5.0 mph 17.0 mph 45% 0.00 in BKN
17:00 79.9 °F 57.2 °F 29.79 in SW 7.0 mph 25.0 mph 46% 0.00 in BKN
17:15 80.1 °F 57.4 °F 29.79 in SW 8.0 mph 19.0 mph 46% 0.00 in BKN
17:30 79.7 °F 57.7 °F 29.79 in SW 7.0 mph 15.0 mph 47% 0.00 in BKN
17:45 79.5 °F 58.1 °F 29.79 in SW 5.0 mph 16.0 mph 48% 0.00 in BKN
18:00 79.8 °F 57.2 °F 29.77 in SW 8.0 mph 17.0 mph 46% 0.00 in BKN
18:15 80.1 °F 57.5 °F 29.77 in SW 5.0 mph 15.0 mph 46% 0.00 in FEW
18:30 80.0 °F 57.3 °F 29.76 in SSW 10.0 mph 18.0 mph 46% 0.00 in FEW
18:45 79.6 °F 57.6 °F 29.76 in SW 8.0 mph 18.0 mph 47% 0.00 in FEW
19:00 78.8 °F 58.0 °F 29.76 in SSW 6.0 mph 18.0 mph 49% 0.00 in FEW
19:15 78.1 °F 57.9 °F 29.77 in SSW 5.0 mph 20.0 mph 50% 0.00 in CLR
19:30 78.1 °F 57.4 °F 29.76 in SSW 6.0 mph 14.0 mph 49% 0.00 in CLR
19:45 78.5 °F 56.0 °F 29.77 in SW 5.0 mph 20.0 mph 46% 0.00 in CLR
20:00 78.8 °F 54.4 °F 29.79 in SW 7.0 mph 16.0 mph 43% 0.00 in CLR
20:15 72.5 °F 59.2 °F 29.82 in NNW 5.0 mph 16.0 mph 63% 0.00 in SCT
20:30 69.8 °F 59.1 °F 29.83 in North 5.0 mph 10.0 mph 69% 0.00 in SCT
20:45 68.8 °F 59.8 °F 29.85 in North 3.0 mph 10.0 mph 73% 0.00 in SCT
21:00 68.1 °F 59.5 °F 29.86 in NNE 1.0 mph 9.0 mph 74% 0.00 in SCT
21:15 68.1 °F 59.9 °F 29.88 in WNW 2.0 mph 10.0 mph 75% 0.00 in SCT
21:30 67.8 °F 59.2 °F 29.88 in ESE 5.0 mph 15.0 mph 74% 0.00 in SCT
21:45 65.7 °F 59.3 °F 29.88 in SW 7.0 mph 13.0 mph 80% 0.01 in RA
22:00 66.0 °F 59.3 °F 29.87 in SW 5.0 mph 13.0 mph 79% 0.00 in SCT
22:15 66.2 °F 59.1 °F 29.86 in SW 5.0 mph 10.0 mph 78% 0.00 in -DZ
22:30 66.3 °F 58.9 °F 29.86 in WSW 2.0 mph 10.0 mph 77% 0.00 in -DZ
22:45 66.1 °F 59.0 °F 29.85 in Calm   9.0 mph 78% 0.00 in -DZ
23:00 65.9 °F 58.5 °F 29.85 in Calm   3.0 mph 77% 0.00 in -DZ
23:15 66.0 °F 58.6 °F 29.85 in Calm   3.0 mph 77% 0.00 in BKN
23:30 65.6 °F 58.6 °F 29.85 in SSE 1.0 mph 3.0 mph 78% 0.00 in BKN
23:45 65.4 °F 58.4 °F 29.85 in Calm   2.0 mph 78% 0.00 in BKN
TarryTown NY Weather
Compliments of Weather Underground - 1.5 mb